createdAt,value
2022-08-03T00:00:48.192Z,6.22
2022-08-03T00:01:50.298Z,8.07
2022-08-03T00:02:52.160Z,7.95
2022-08-03T00:03:54.269Z,8.95
2022-08-03T00:04:56.070Z,6.82
2022-08-03T00:06:04.841Z,8.13
2022-08-03T00:07:07.058Z,8.40
2022-08-03T00:08:08.853Z,8.50
2022-08-03T00:09:12.153Z,6.32
2022-08-03T00:10:14.438Z,5.00
2022-08-03T00:11:16.713Z,8.13
2022-08-03T00:12:18.646Z,8.70
2022-08-03T00:13:20.822Z,8.68
2022-08-03T00:14:22.633Z,7.90
2022-08-03T00:15:24.670Z,7.32
2022-08-03T00:16:27.742Z,10.53
2022-08-03T00:17:29.591Z,8.43
2022-08-03T00:18:51.661Z,7.10
2022-08-03T00:19:53.473Z,7.00
2022-08-03T00:20:55.611Z,5.75
2022-08-03T00:21:57.410Z,6.90
2022-08-03T00:22:59.215Z,6.88
2022-08-03T00:24:01.397Z,6.35
2022-08-03T00:25:03.725Z,10.07
2022-08-03T00:26:05.557Z,7.35
2022-08-03T00:27:08.516Z,7.90
2022-08-03T00:28:10.523Z,11.13
2022-08-03T00:29:12.421Z,6.50
2022-08-03T00:30:14.228Z,6.25
2022-08-03T00:31:23.144Z,10.15
2022-08-03T00:32:44.265Z,9.25
2022-08-03T00:33:58.398Z,11.15
2022-08-03T00:35:04.341Z,7.63
2022-08-03T00:36:11.698Z,5.82
2022-08-03T00:37:13.555Z,10.90
2022-08-03T00:38:15.639Z,7.33
2022-08-03T00:39:17.459Z,8.90
2022-08-03T00:40:20.274Z,4.85
2022-08-03T00:41:22.417Z,5.15
2022-08-03T00:42:24.215Z,8.73
2022-08-03T00:43:30.507Z,7.78
2022-08-03T00:44:39.009Z,6.28
2022-08-03T00:45:42.540Z,6.70
2022-08-03T00:46:44.438Z,8.43
2022-08-03T00:47:46.476Z,5.35
2022-08-03T00:48:52.339Z,15.40
2022-08-03T00:49:54.279Z,7.95
2022-08-03T00:50:56.212Z,8.40
2022-08-03T00:51:59.374Z,8.80
2022-08-03T00:53:03.267Z,10.85
2022-08-03T00:54:05.075Z,10.63
2022-08-03T00:55:07.411Z,6.47
2022-08-03T00:56:09.374Z,6.03
2022-08-03T00:57:11.390Z,9.90
2022-08-03T00:58:14.751Z,11.63
2022-08-03T00:59:16.697Z,6.70
2022-08-03T01:00:22.673Z,7.05
2022-08-03T01:01:25.003Z,6.18
2022-08-03T01:02:30.055Z,7.82
2022-08-03T01:03:31.839Z,8.80
2022-08-03T01:04:33.693Z,9.93
2022-08-03T01:06:01.963Z,6.78
2022-08-03T01:07:17.456Z,9.07
2022-08-03T01:08:22.925Z,7.57
2022-08-03T01:09:30.479Z,5.85
2022-08-03T01:10:41.090Z,6.80
2022-08-03T01:12:01.003Z,7.55
2022-08-03T01:13:59.193Z,8.75
2022-08-03T01:14:58.629Z,9.68
2022-08-03T01:16:09.741Z,6.20
2022-08-03T01:17:20.568Z,7.88
2022-08-03T01:18:44.769Z,6.30
2022-08-03T01:20:09.058Z,10.45
2022-08-03T01:21:26.601Z,8.75
2022-08-03T01:22:50.237Z,8.23
2022-08-03T01:24:04.272Z,7.30
2022-08-03T01:25:09.684Z,12.18
2022-08-03T01:26:53.752Z,7.40
2022-08-03T01:28:10.423Z,11.27
2022-08-03T01:29:43.808Z,10.25
2022-08-03T01:30:47.406Z,12.55
2022-08-03T01:32:59.696Z,8.40
2022-08-03T01:33:43.979Z,9.77
2022-08-03T01:34:52.494Z,11.57
2022-08-03T01:35:59.628Z,9.82
2022-08-03T01:37:06.079Z,7.43
2022-08-03T01:38:18.206Z,10.82
2022-08-03T01:39:22.084Z,11.57
2022-08-03T01:40:26.835Z,11.82
2022-08-03T01:41:35.321Z,8.73
2022-08-03T01:42:39.921Z,9.55
2022-08-03T01:44:26.968Z,7.75
2022-08-03T01:45:10.750Z,9.43
2022-08-03T01:46:14.472Z,9.25
2022-08-03T01:47:19.594Z,6.30
2022-08-03T01:48:21.804Z,11.27
2022-08-03T01:49:25.666Z,8.43
2022-08-03T01:50:30.364Z,14.95
2022-08-03T01:51:56.078Z,11.07
2022-08-03T01:52:57.663Z,12.05
2022-08-03T01:54:01.311Z,8.05
2022-08-03T01:55:04.117Z,7.53
2022-08-03T01:56:06.885Z,10.85
2022-08-03T01:57:10.219Z,8.13
2022-08-03T01:58:15.696Z,9.70
2022-08-03T01:59:21.685Z,14.20
2022-08-03T02:00:25.496Z,12.02
2022-08-03T02:02:29.789Z,13.20
2022-08-03T02:02:52.291Z,9.20
2022-08-03T02:04:00.686Z,9.13
2022-08-03T02:05:11.108Z,10.30
2022-08-03T02:07:02.302Z,13.10
2022-08-03T02:07:39.764Z,8.07
2022-08-03T02:08:43.292Z,10.32
2022-08-03T02:09:49.984Z,12.10
2022-08-03T02:10:52.791Z,9.80
2022-08-03T02:11:56.223Z,10.57
2022-08-03T02:13:01.727Z,8.73
2022-08-03T02:14:06.065Z,9.50
2022-08-03T02:15:08.842Z,10.77
2022-08-03T02:16:13.983Z,9.32
2022-08-03T02:17:16.578Z,10.00
2022-08-03T02:18:20.447Z,14.00
2022-08-03T02:19:24.677Z,7.22
2022-08-03T02:20:28.883Z,11.63
2022-08-03T02:21:56.620Z,11.03
2022-08-03T02:22:57.591Z,13.52
2022-08-03T02:23:59.617Z,14.73
2022-08-03T02:25:01.934Z,11.50
2022-08-03T02:26:06.969Z,8.45
2022-08-03T02:27:23.574Z,9.65
2022-08-03T02:28:47.626Z,10.25
2022-08-03T02:30:21.818Z,11.48
2022-08-03T02:31:29.092Z,14.13
2022-08-03T02:32:35.772Z,14.40
2022-08-03T02:33:41.278Z,14.93
2022-08-03T02:34:47.463Z,15.63
2022-08-03T02:35:51.070Z,13.52
2022-08-03T02:36:55.540Z,9.77
2022-08-03T02:38:02.310Z,11.63
2022-08-03T02:39:05.584Z,15.30
2022-08-03T02:40:12.001Z,11.27
2022-08-03T02:41:17.251Z,10.13
2022-08-03T02:42:23.450Z,9.93
2022-08-03T02:43:26.768Z,8.13
2022-08-03T02:44:32.484Z,9.90
2022-08-03T02:45:40.564Z,13.68
2022-08-03T02:46:49.559Z,7.57
2022-08-03T02:47:55.467Z,12.98
2022-08-03T02:48:59.326Z,10.15
2022-08-03T02:50:23.176Z,10.27
2022-08-03T02:51:28.224Z,12.20
2022-08-03T02:52:33.224Z,16.33
2022-08-03T02:53:36.293Z,12.20
2022-08-03T02:54:39.933Z,10.30
2022-08-03T02:55:43.263Z,10.87
2022-08-03T02:56:49.488Z,11.25
2022-08-03T02:57:52.844Z,9.50
2022-08-03T02:58:56.622Z,9.80
2022-08-03T03:00:00.859Z,12.63
2022-08-03T03:01:03.592Z,11.48
2022-08-03T03:02:06.551Z,17.27
2022-08-03T03:03:10.223Z,10.63
2022-08-03T03:04:12.955Z,14.10
2022-08-03T03:05:56.115Z,15.55
2022-08-03T03:06:39.729Z,10.47
2022-08-03T03:07:53.098Z,13.82
2022-08-03T03:08:59.762Z,10.65
2022-08-03T03:10:03.241Z,10.75
2022-08-03T03:11:05.424Z,12.70
2022-08-03T03:12:09.981Z,12.13
2022-08-03T03:13:14.028Z,12.40
2022-08-03T03:14:16.395Z,11.25
2022-08-03T03:15:37.171Z,12.80
2022-08-03T03:16:40.635Z,12.85
2022-08-03T03:17:44.405Z,10.70
2022-08-03T03:18:48.664Z,12.48
2022-08-03T03:19:51.930Z,8.95
2022-08-03T03:20:56.188Z,11.70
2022-08-03T03:22:01.339Z,12.80
2022-08-03T03:23:04.997Z,11.55
2022-08-03T03:24:07.950Z,12.82
2022-08-03T03:25:10.540Z,12.07
2022-08-03T03:26:14.685Z,11.25
2022-08-03T03:27:16.939Z,14.43
2022-08-03T03:28:19.264Z,14.43
2022-08-03T03:29:22.020Z,9.68
2022-08-03T03:30:24.775Z,8.63
2022-08-03T03:31:26.662Z,15.10
2022-08-03T03:32:30.191Z,11.57
2022-08-03T03:33:33.911Z,12.65
2022-08-03T03:34:37.267Z,12.52
2022-08-03T03:35:41.449Z,12.50
2022-08-03T03:36:44.284Z,10.80
2022-08-03T03:37:46.612Z,12.43
2022-08-03T03:38:48.667Z,11.37
2022-08-03T03:39:50.591Z,14.40
2022-08-03T03:40:52.686Z,12.90
2022-08-03T03:41:54.833Z,10.90
2022-08-03T03:42:56.760Z,12.55
2022-08-03T03:43:59.324Z,9.77
2022-08-03T03:45:05.733Z,15.45
2022-08-03T03:46:07.716Z,9.75
2022-08-03T03:47:10.397Z,15.20
2022-08-03T03:48:12.872Z,9.93
2022-08-03T03:49:16.045Z,13.60
2022-08-03T03:50:19.345Z,15.05
2022-08-03T03:51:21.355Z,16.50
2022-08-03T03:52:23.256Z,12.45
2022-08-03T03:53:25.578Z,13.10
2022-08-03T03:54:29.001Z,11.88
2022-08-03T03:55:31.513Z,13.27
2022-08-03T03:56:33.381Z,11.35
2022-08-03T03:57:35.313Z,12.18
2022-08-03T03:58:37.237Z,14.68
2022-08-03T03:59:42.920Z,13.87
2022-08-03T04:00:45.401Z,12.57
2022-08-03T04:01:48.337Z,10.23
2022-08-03T04:03:01.251Z,14.02
2022-08-03T04:04:23.037Z,15.70
2022-08-03T04:05:45.959Z,13.85
2022-08-03T04:07:11.385Z,16.00
2022-08-03T04:08:35.512Z,15.57
2022-08-03T04:09:59.184Z,13.00
2022-08-03T04:11:40.651Z,9.18
2022-08-03T04:12:50.028Z,13.73
2022-08-03T04:13:55.397Z,13.27
2022-08-03T04:14:59.072Z,10.45
2022-08-03T04:16:02.256Z,11.90
2022-08-03T04:17:08.622Z,11.32
2022-08-03T04:18:13.888Z,12.40
2022-08-03T04:19:38.433Z,23.80
2022-08-03T04:20:43.312Z,16.75
2022-08-03T04:21:52.802Z,12.45
2022-08-03T04:22:55.821Z,14.40
2022-08-03T04:24:01.966Z,13.50
2022-08-03T04:25:08.422Z,8.35
2022-08-03T04:26:13.517Z,15.63
2022-08-03T04:27:21.222Z,12.82
2022-08-03T04:28:31.406Z,13.75
2022-08-03T04:29:36.142Z,14.25
2022-08-03T04:30:47.676Z,19.35
2022-08-03T04:31:51.962Z,13.85
2022-08-03T04:32:56.389Z,12.77
2022-08-03T04:33:58.456Z,12.45
2022-08-03T04:35:00.534Z,13.50
2022-08-03T04:36:06.367Z,15.40
2022-08-03T04:37:34.453Z,12.90
2022-08-03T04:38:40.103Z,13.85
2022-08-03T04:39:42.868Z,15.70
2022-08-03T04:40:46.424Z,13.38
2022-08-03T04:42:06.943Z,18.58
2022-08-03T04:43:13.162Z,14.30
2022-08-03T04:44:15.864Z,11.43
2022-08-03T04:45:19.365Z,12.73
2022-08-03T04:46:24.363Z,16.60
2022-08-03T04:47:26.466Z,11.98
2022-08-03T04:48:29.166Z,15.68
2022-08-03T04:49:31.742Z,15.50
2022-08-03T04:50:34.507Z,11.60
2022-08-03T04:51:40.566Z,13.35
2022-08-03T04:52:42.699Z,13.52
2022-08-03T04:53:44.614Z,15.15
2022-08-03T04:54:50.344Z,20.67
2022-08-03T04:55:52.563Z,13.73
2022-08-03T04:56:54.428Z,19.67
2022-08-03T04:57:57.481Z,13.93
2022-08-03T04:58:59.266Z,15.38
2022-08-03T05:00:03.626Z,13.73
2022-08-03T05:01:05.986Z,16.15
2022-08-03T05:02:08.011Z,18.95
2022-08-03T05:03:23.898Z,12.88
2022-08-03T05:04:26.249Z,11.40
2022-08-03T05:05:34.666Z,13.82
2022-08-03T05:06:54.909Z,12.48
2022-08-03T05:07:57.065Z,11.57
2022-08-03T05:08:58.862Z,15.02
2022-08-03T05:10:02.858Z,13.43
2022-08-03T05:11:05.179Z,13.98
2022-08-03T05:12:07.841Z,18.48
2022-08-03T05:13:13.679Z,13.88
2022-08-03T05:14:15.494Z,14.48
2022-08-03T05:15:17.513Z,15.50
2022-08-03T05:16:19.407Z,17.27
2022-08-03T05:17:21.209Z,12.13
2022-08-03T05:18:23.038Z,14.83
2022-08-03T05:19:25.255Z,13.38
2022-08-03T05:20:27.188Z,15.55
2022-08-03T05:21:51.959Z,13.13
2022-08-03T05:22:51.161Z,11.95
2022-08-03T05:23:52.952Z,14.75
2022-08-03T05:24:54.916Z,11.98
2022-08-03T05:25:57.080Z,12.23
2022-08-03T05:26:58.892Z,13.32
2022-08-03T05:28:00.868Z,14.88
2022-08-03T05:29:02.724Z,16.67
2022-08-03T05:30:30.885Z,17.25
2022-08-03T05:31:27.072Z,14.30
2022-08-03T05:32:28.965Z,14.05
2022-08-03T05:33:30.892Z,13.25
2022-08-03T05:34:32.861Z,13.63
2022-08-03T05:36:02.728Z,16.90
2022-08-03T05:37:00.962Z,14.57
2022-08-03T05:38:03.555Z,23.20
2022-08-03T05:39:05.713Z,14.35
2022-08-03T05:40:08.142Z,16.47
2022-08-03T05:41:21.324Z,16.55
2022-08-03T05:42:24.929Z,19.30
2022-08-03T05:43:26.877Z,16.55
2022-08-03T05:44:28.828Z,13.48
2022-08-03T05:45:32.543Z,13.77
2022-08-03T05:46:34.337Z,14.10
2022-08-03T05:47:36.062Z,16.75
2022-08-03T05:48:38.130Z,18.45
2022-08-03T05:49:40.191Z,12.45
2022-08-03T05:50:42.994Z,14.83
2022-08-03T05:51:45.223Z,22.20
2022-08-03T05:52:47.476Z,17.08
2022-08-03T05:53:49.653Z,14.70
2022-08-03T05:54:56.096Z,18.45
2022-08-03T05:56:03.508Z,21.08
2022-08-03T05:57:16.625Z,17.33
2022-08-03T05:58:18.436Z,20.08
2022-08-03T05:59:37.611Z,16.35
2022-08-03T06:00:40.104Z,13.45
2022-08-03T06:01:41.969Z,16.63
2022-08-03T06:02:44.025Z,16.85
2022-08-03T06:03:49.927Z,16.80
2022-08-03T06:04:52.235Z,19.73
2022-08-03T06:06:00.297Z,17.80
2022-08-03T06:07:02.469Z,18.95
2022-08-03T06:08:04.756Z,17.90
2022-08-03T06:09:06.550Z,15.88
2022-08-03T06:10:36.699Z,17.77
2022-08-03T06:11:30.985Z,15.07
2022-08-03T06:12:36.100Z,11.50
2022-08-03T06:13:38.282Z,11.40
2022-08-03T06:14:40.249Z,12.73
2022-08-03T06:15:42.621Z,14.13
2022-08-03T06:16:44.404Z,12.50
2022-08-03T06:17:50.920Z,18.67
2022-08-03T06:18:52.942Z,20.27
2022-08-03T06:19:54.829Z,15.45
2022-08-03T06:20:56.889Z,19.60
2022-08-03T06:21:58.690Z,15.23
2022-08-03T06:23:01.959Z,18.37
2022-08-03T06:24:04.414Z,18.30
2022-08-03T06:25:12.682Z,15.68
2022-08-03T06:26:14.876Z,16.10
2022-08-03T06:27:16.902Z,18.60
2022-08-03T06:28:51.866Z,13.80
2022-08-03T06:29:40.595Z,19.80
2022-08-03T06:30:42.598Z,20.25
2022-08-03T06:31:44.781Z,15.63
2022-08-03T06:32:51.667Z,19.42
2022-08-03T06:34:33.749Z,15.27
2022-08-03T06:35:16.387Z,21.58
2022-08-03T06:36:18.207Z,16.83
2022-08-03T06:37:19.975Z,15.93
2022-08-03T06:38:21.965Z,21.95
2022-08-03T06:39:24.432Z,22.98
2022-08-03T06:40:31.572Z,16.52
2022-08-03T06:41:37.621Z,14.40
2022-08-03T06:42:44.152Z,15.85
2022-08-03T06:44:02.913Z,16.92
2022-08-03T06:45:09.038Z,16.20
2022-08-03T06:46:11.070Z,16.95
2022-08-03T06:47:12.915Z,21.73
2022-08-03T06:48:14.878Z,13.82
2022-08-03T06:49:16.975Z,20.05
2022-08-03T06:50:21.832Z,21.15
2022-08-03T06:52:03.080Z,18.65
2022-08-03T06:52:49.327Z,18.30
2022-08-03T06:53:51.243Z,20.35
2022-08-03T06:54:53.109Z,15.95
2022-08-03T06:55:55.455Z,17.47
2022-08-03T06:56:57.294Z,15.57
2022-08-03T06:58:00.160Z,18.58
2022-08-03T06:59:05.480Z,20.25
2022-08-03T07:00:12.537Z,17.05
2022-08-03T07:01:14.740Z,17.63
2022-08-03T07:02:21.040Z,14.80
2022-08-03T07:03:23.016Z,21.55
2022-08-03T07:04:24.903Z,16.55
2022-08-03T07:05:27.065Z,19.40
2022-08-03T07:06:29.075Z,19.80
2022-08-03T07:07:31.095Z,18.58
2022-08-03T07:08:34.427Z,13.75
2022-08-03T07:09:36.497Z,15.70
2022-08-03T07:10:38.501Z,19.02
2022-08-03T07:11:40.356Z,18.92
2022-08-03T07:12:52.718Z,20.40
2022-08-03T07:13:58.632Z,14.75
2022-08-03T07:15:03.187Z,17.63
2022-08-03T07:16:05.803Z,24.92
2022-08-03T07:17:12.029Z,19.50
2022-08-03T07:18:14.007Z,17.02
2022-08-03T07:19:16.368Z,18.33
2022-08-03T07:20:18.330Z,13.80
2022-08-03T07:21:20.195Z,18.67
2022-08-03T07:22:22.214Z,17.08
2022-08-03T07:23:24.204Z,21.70
2022-08-03T07:24:26.002Z,22.42
2022-08-03T07:25:30.267Z,18.08
2022-08-03T07:26:32.056Z,15.90
2022-08-03T07:27:34.129Z,16.97
2022-08-03T07:28:35.972Z,21.50
2022-08-03T07:29:38.120Z,16.77
2022-08-03T07:30:39.878Z,17.70
2022-08-03T07:31:42.165Z,11.75
2022-08-03T07:32:49.734Z,20.42
2022-08-03T07:33:52.957Z,15.07
2022-08-03T07:34:58.460Z,17.73
2022-08-03T07:36:02.508Z,17.30
2022-08-03T07:37:04.325Z,15.82
2022-08-03T07:38:06.245Z,20.20
2022-08-03T07:39:18.114Z,19.20
2022-08-03T07:40:21.088Z,15.05
2022-08-03T07:41:22.996Z,20.77
2022-08-03T07:42:24.888Z,16.02
2022-08-03T07:43:27.364Z,23.13
2022-08-03T07:44:29.342Z,19.73
2022-08-03T07:45:33.058Z,19.83
2022-08-03T07:46:34.969Z,18.55
2022-08-03T07:47:36.862Z,21.98
2022-08-03T07:48:38.620Z,20.70
2022-08-03T07:49:41.814Z,16.90
2022-08-03T07:50:50.732Z,16.95
2022-08-03T07:52:11.934Z,14.70
2022-08-03T07:53:14.305Z,16.42
2022-08-03T07:54:16.208Z,22.35
2022-08-03T07:55:25.057Z,15.27
2022-08-03T07:56:28.977Z,16.48
2022-08-03T07:57:30.819Z,19.52
2022-08-03T07:58:32.841Z,20.02
2022-08-03T07:59:56.621Z,17.30
2022-08-03T08:00:57.412Z,24.92
2022-08-03T08:01:59.293Z,13.68
2022-08-03T08:03:01.155Z,17.27
2022-08-03T08:04:03.172Z,19.88
2022-08-03T08:05:06.026Z,17.98
2022-08-03T08:06:08.023Z,17.90
2022-08-03T08:07:11.610Z,19.23
2022-08-03T08:08:13.722Z,13.23
2022-08-03T08:09:15.749Z,17.48
2022-08-03T08:10:17.537Z,21.43
2022-08-03T08:11:19.356Z,19.88
2022-08-03T08:12:21.313Z,17.70
2022-08-03T08:13:23.468Z,18.40
2022-08-03T08:14:25.318Z,20.70
2022-08-03T08:15:27.762Z,19.58
2022-08-03T08:16:29.753Z,26.95
2022-08-03T08:17:31.733Z,19.25
2022-08-03T08:18:34.597Z,12.98
2022-08-03T08:19:38.275Z,20.05
2022-08-03T08:20:48.549Z,17.23
2022-08-03T08:21:53.489Z,15.23
2022-08-03T08:23:16.608Z,19.33
2022-08-03T08:24:32.283Z,19.33
2022-08-03T08:25:34.737Z,20.85
2022-08-03T08:26:37.480Z,17.42
2022-08-03T08:28:30.435Z,22.05
2022-08-03T08:29:09.475Z,16.05
2022-08-03T08:30:14.906Z,19.38
2022-08-03T08:31:19.113Z,19.85
2022-08-03T08:32:20.876Z,21.77
2022-08-03T08:33:24.050Z,26.95
2022-08-03T08:34:26.425Z,15.52
2022-08-03T08:35:28.334Z,20.05
2022-08-03T08:36:30.237Z,21.50
2022-08-03T08:37:32.832Z,20.77
2022-08-03T08:38:35.592Z,22.55
2022-08-03T08:39:37.481Z,20.58
2022-08-03T08:40:39.489Z,12.10
2022-08-03T08:41:46.150Z,17.27
2022-08-03T08:42:58.903Z,18.70
2022-08-03T08:44:02.355Z,23.02
2022-08-03T08:45:06.522Z,20.60
2022-08-03T08:46:22.940Z,25.85
2022-08-03T08:47:29.318Z,22.20
2022-08-03T08:48:53.524Z,22.20
2022-08-03T08:50:09.328Z,21.80
2022-08-03T08:51:13.605Z,19.48
2022-08-03T08:52:25.333Z,17.17
2022-08-03T08:53:29.333Z,25.00
2022-08-03T08:54:33.262Z,24.60
2022-08-03T08:55:58.642Z,24.30
2022-08-03T08:57:01.879Z,16.83
2022-08-03T08:58:06.271Z,24.20
2022-08-03T08:59:08.685Z,22.35
2022-08-03T09:00:15.353Z,17.98
2022-08-03T09:01:20.452Z,14.82
2022-08-03T09:02:25.476Z,18.40
2022-08-03T09:03:30.361Z,20.50
2022-08-03T09:04:33.297Z,15.63
2022-08-03T09:05:54.841Z,21.17
2022-08-03T09:07:17.987Z,22.40
2022-08-03T09:08:19.299Z,17.25
2022-08-03T09:10:01.245Z,20.52
2022-08-03T09:10:43.173Z,25.60
2022-08-03T09:11:53.700Z,22.55
2022-08-03T09:13:02.962Z,18.85
2022-08-03T09:14:07.468Z,20.35
2022-08-03T09:15:27.019Z,13.88
2022-08-03T09:16:28.908Z,19.38
2022-08-03T09:17:40.997Z,15.80
2022-08-03T09:18:45.536Z,19.07
2022-08-03T09:20:10.174Z,20.50
2022-08-03T09:21:31.579Z,17.30
2022-08-03T09:22:34.621Z,20.50
2022-08-03T09:24:01.925Z,16.30
2022-08-03T09:25:24.609Z,10.98
2022-08-03T09:26:28.774Z,13.60
2022-08-03T09:27:42.638Z,16.45
2022-08-03T09:29:01.558Z,14.82
2022-08-03T09:30:19.025Z,23.00
2022-08-03T09:31:39.071Z,20.23
2022-08-03T09:32:46.713Z,19.38
2022-08-03T09:33:48.973Z,18.75
2022-08-03T09:34:55.314Z,14.52
2022-08-03T09:35:59.918Z,16.88
2022-08-03T09:37:01.767Z,20.85
2022-08-03T09:38:30.034Z,21.50
2022-08-03T09:39:41.250Z,18.48
2022-08-03T09:40:45.208Z,17.88
2022-08-03T09:41:49.269Z,23.05
2022-08-03T09:42:57.787Z,19.07
2022-08-03T09:43:59.889Z,15.30
2022-08-03T09:45:01.833Z,17.95
2022-08-03T09:46:05.662Z,18.73
2022-08-03T09:47:07.855Z,19.05
2022-08-03T09:48:26.855Z,17.38
2022-08-03T09:49:28.675Z,18.33
2022-08-03T09:50:31.629Z,22.27
2022-08-03T09:52:32.007Z,17.67
2022-08-03T09:53:02.437Z,19.42
2022-08-03T09:54:07.585Z,16.77
2022-08-03T09:56:05.207Z,20.92
2022-08-03T09:56:43.949Z,14.00
2022-08-03T09:57:46.452Z,20.45
2022-08-03T09:58:48.418Z,18.10
2022-08-03T09:59:54.849Z,16.52
2022-08-03T10:01:23.984Z,18.83
2022-08-03T10:02:27.859Z,16.20
2022-08-03T10:03:35.044Z,17.70
2022-08-03T10:04:48.674Z,15.73
2022-08-03T10:05:51.724Z,14.60
2022-08-03T10:07:05.235Z,16.48
2022-08-03T10:08:15.567Z,14.10
2022-08-03T10:09:17.660Z,15.13
2022-08-03T10:10:31.142Z,20.55
2022-08-03T10:11:40.889Z,18.63
2022-08-03T10:12:44.358Z,17.08
2022-08-03T10:13:47.948Z,17.08
2022-08-03T10:14:50.758Z,15.52
2022-08-03T10:16:23.841Z,17.65
2022-08-03T10:17:15.227Z,13.83
2022-08-03T10:18:17.246Z,18.88
2022-08-03T10:19:19.469Z,15.35
2022-08-03T10:20:21.469Z,16.90
2022-08-03T10:21:23.446Z,17.92
2022-08-03T10:22:29.742Z,16.55
2022-08-03T10:23:35.458Z,15.35
2022-08-03T10:24:39.362Z,20.17
2022-08-03T10:25:43.863Z,12.52
2022-08-03T10:26:49.980Z,24.73
2022-08-03T10:27:53.315Z,18.57
2022-08-03T10:28:58.858Z,19.67
2022-08-03T10:30:04.945Z,19.30
2022-08-03T10:31:08.331Z,15.85
2022-08-03T10:32:19.063Z,18.55
2022-08-03T10:33:50.028Z,16.30
2022-08-03T10:34:49.828Z,12.80
2022-08-03T10:35:56.989Z,18.23
2022-08-03T10:37:01.783Z,20.20
2022-08-03T10:38:09.905Z,12.90
2022-08-03T10:39:16.222Z,17.47
2022-08-03T10:40:39.532Z,16.90
2022-08-03T10:41:46.443Z,14.63
2022-08-03T10:42:53.223Z,14.85
2022-08-03T10:44:10.564Z,15.00
2022-08-03T10:45:19.984Z,16.90
2022-08-03T10:46:22.068Z,14.23
2022-08-03T10:47:24.271Z,10.93
2022-08-03T10:48:26.798Z,14.38
2022-08-03T10:49:34.846Z,15.88
2022-08-03T10:50:37.499Z,14.40
2022-08-03T10:51:39.971Z,12.43
2022-08-03T10:53:02.057Z,12.27
2022-08-03T10:54:05.993Z,16.13
2022-08-03T10:55:57.299Z,11.82
2022-08-03T10:57:18.943Z,13.50
2022-08-03T10:58:56.900Z,13.15
2022-08-03T11:00:00.415Z,15.68
2022-08-03T11:01:03.087Z,15.68
2022-08-03T11:02:08.318Z,13.43
2022-08-03T11:03:11.776Z,13.13
2022-08-03T11:04:21.031Z,17.00
2022-08-03T11:05:30.688Z,16.08
2022-08-03T11:06:37.607Z,13.38
2022-08-03T11:07:39.790Z,12.07
2022-08-03T11:08:41.695Z,15.48
2022-08-03T11:09:45.131Z,19.20
2022-08-03T11:10:48.063Z,17.90
2022-08-03T11:11:50.185Z,16.50
2022-08-03T11:13:05.723Z,17.23
2022-08-03T11:14:14.953Z,12.13
2022-08-03T11:15:33.740Z,15.98
2022-08-03T11:16:38.597Z,14.05
2022-08-03T11:18:00.476Z,11.68
2022-08-03T11:19:10.642Z,10.50
2022-08-03T11:20:12.795Z,12.75
2022-08-03T11:21:14.706Z,12.48
2022-08-03T11:22:18.232Z,16.33
2022-08-03T11:24:05.164Z,11.98
2022-08-03T11:25:04.448Z,16.67
2022-08-03T11:26:10.807Z,9.83
2022-08-03T11:27:18.315Z,18.90
2022-08-03T11:28:28.456Z,10.70
2022-08-03T11:29:31.174Z,14.25
2022-08-03T11:30:33.034Z,12.77
2022-08-03T11:31:51.621Z,11.35
2022-08-03T11:32:58.636Z,10.95
2022-08-03T11:34:07.970Z,14.30
2022-08-03T11:35:27.500Z,14.35
2022-08-03T11:36:32.393Z,9.60
2022-08-03T11:37:34.985Z,10.50
2022-08-03T11:39:16.784Z,9.13
2022-08-03T11:40:49.876Z,16.25
2022-08-03T11:41:51.854Z,12.25
2022-08-03T11:42:53.706Z,12.00
2022-08-03T11:43:55.554Z,13.82
2022-08-03T11:44:58.902Z,10.75
2022-08-03T11:46:05.883Z,15.35
2022-08-03T11:47:09.317Z,14.90
2022-08-03T11:48:18.223Z,11.00
2022-08-03T11:49:23.644Z,11.13
2022-08-03T11:50:26.161Z,13.60
2022-08-03T11:51:32.155Z,11.80
2022-08-03T11:52:39.321Z,11.73
2022-08-03T11:53:42.213Z,10.95
2022-08-03T11:54:44.589Z,13.63
2022-08-03T11:55:50.873Z,12.82
2022-08-03T11:56:52.771Z,15.05
2022-08-03T11:59:01.305Z,20.05
2022-08-03T11:59:33.180Z,12.02
2022-08-03T12:00:35.014Z,10.63
2022-08-03T12:01:37.555Z,12.98
2022-08-03T12:02:39.610Z,11.52
2022-08-03T12:03:41.626Z,15.43
2022-08-03T12:05:09.447Z,10.77
2022-08-03T12:06:13.765Z,9.30
2022-08-03T12:08:03.971Z,12.85
2022-08-03T12:08:37.463Z,17.48
2022-08-03T12:09:41.828Z,15.27
2022-08-03T12:10:49.520Z,11.52
2022-08-03T12:12:00.685Z,12.17
2022-08-03T12:14:45.691Z,12.15
2022-08-03T12:14:50.503Z,13.90
2022-08-03T12:15:56.536Z,13.57
2022-08-03T12:16:58.689Z,12.80
2022-08-03T12:18:04.103Z,12.23
2022-08-03T12:19:09.109Z,9.02
2022-08-03T12:20:22.171Z,12.32
2022-08-03T12:21:55.823Z,13.70
2022-08-03T12:23:04.717Z,13.35
2022-08-03T12:24:06.673Z,12.83
2022-08-03T12:25:09.650Z,12.18
2022-08-03T12:26:11.524Z,13.98
2022-08-03T12:27:22.313Z,13.13
2022-08-03T12:28:36.060Z,14.23
2022-08-03T12:29:39.627Z,14.07
2022-08-03T12:30:41.669Z,13.18
2022-08-03T12:31:43.565Z,9.52
2022-08-03T12:32:45.949Z,9.70
2022-08-03T12:34:03.386Z,8.95
2022-08-03T12:35:06.157Z,11.13
2022-08-03T12:36:10.137Z,17.15
2022-08-03T12:37:20.209Z,10.88
2022-08-03T12:38:27.095Z,8.73
2022-08-03T12:39:30.986Z,7.32
2022-08-03T12:40:33.381Z,19.30
2022-08-03T12:41:37.478Z,11.40
2022-08-03T12:42:40.297Z,9.52
2022-08-03T12:43:49.724Z,10.05
2022-08-03T12:44:54.607Z,9.45
2022-08-03T12:46:12.167Z,15.13
2022-08-03T12:47:13.987Z,14.90
2022-08-03T12:48:15.804Z,9.93
2022-08-03T12:49:19.260Z,10.68
2022-08-03T12:50:29.520Z,11.38
2022-08-03T12:51:34.142Z,11.90
2022-08-03T12:52:43.368Z,16.70
2022-08-03T12:53:52.925Z,13.00
2022-08-03T12:55:00.399Z,10.63
2022-08-03T12:56:05.629Z,8.88
2022-08-03T12:57:16.157Z,13.47
2022-08-03T12:58:33.552Z,7.90
2022-08-03T12:59:53.095Z,13.80
2022-08-03T13:00:56.388Z,13.13
2022-08-03T13:01:59.475Z,13.32
2022-08-03T13:04:38.405Z,11.38
2022-08-03T13:05:45.128Z,8.68
2022-08-03T13:07:02.373Z,10.70
2022-08-03T13:08:05.185Z,10.18
2022-08-03T13:09:07.995Z,9.17
2022-08-03T13:10:11.355Z,7.78
2022-08-03T13:11:50.549Z,11.57
2022-08-03T13:12:50.362Z,9.45
2022-08-03T13:13:55.440Z,9.20
2022-08-03T13:15:00.447Z,12.80
2022-08-03T13:16:02.374Z,6.88
2022-08-03T13:17:06.340Z,9.45
2022-08-03T13:18:08.483Z,10.43
2022-08-03T13:19:15.423Z,11.02
2022-08-03T13:20:18.009Z,12.27
2022-08-03T13:21:20.997Z,9.00
2022-08-03T13:22:25.572Z,9.00
2022-08-03T13:23:27.610Z,7.07
2022-08-03T13:24:30.366Z,9.38
2022-08-03T13:25:32.592Z,8.93
2022-08-03T13:26:34.490Z,8.35
2022-08-03T13:28:04.379Z,10.23
2022-08-03T13:28:58.097Z,13.75
2022-08-03T13:30:00.226Z,16.73
2022-08-03T13:31:02.387Z,11.73
2022-08-03T13:32:06.085Z,10.13
2022-08-03T13:33:09.090Z,10.27
2022-08-03T13:34:10.865Z,6.18
2022-08-03T13:35:12.722Z,11.43
2022-08-03T13:36:18.614Z,8.60
2022-08-03T13:37:20.829Z,11.70
2022-08-03T13:38:26.968Z,7.57
2022-08-03T13:39:32.654Z,10.63
2022-08-03T13:40:41.451Z,7.93
2022-08-03T13:41:43.763Z,6.90
2022-08-03T13:42:45.587Z,8.63
2022-08-03T13:43:47.388Z,8.93
2022-08-03T13:44:49.221Z,6.35
2022-08-03T13:45:54.837Z,9.02
2022-08-03T13:47:00.626Z,8.30
2022-08-03T13:48:02.640Z,10.35
2022-08-03T13:49:04.652Z,10.95
2022-08-03T13:50:06.812Z,7.63
2022-08-03T13:51:11.765Z,10.27
2022-08-03T13:52:24.592Z,11.60
2022-08-03T13:53:26.362Z,9.80
2022-08-03T13:54:28.256Z,9.63
2022-08-03T13:55:30.059Z,10.07
2022-08-03T13:56:31.949Z,9.27
2022-08-03T13:58:02.243Z,7.03
2022-08-03T13:58:57.971Z,12.27
2022-08-03T14:00:00.276Z,10.15
2022-08-03T14:01:02.101Z,10.80
2022-08-03T14:02:04.745Z,10.40
2022-08-03T14:03:13.694Z,13.90
2022-08-03T14:04:22.386Z,9.45
2022-08-03T14:05:24.587Z,6.78
2022-08-03T14:06:26.458Z,7.82
2022-08-03T14:07:28.482Z,8.02
2022-08-03T14:08:30.280Z,10.18
2022-08-03T14:09:32.372Z,8.95
2022-08-03T14:10:37.241Z,10.00
2022-08-03T14:12:07.383Z,9.88
2022-08-03T14:13:01.302Z,8.43
2022-08-03T14:14:03.084Z,9.50
2022-08-03T14:15:10.126Z,16.58
2022-08-03T14:16:12.252Z,10.95
2022-08-03T14:17:19.147Z,9.45
2022-08-03T14:18:28.652Z,8.70
2022-08-03T14:19:44.899Z,9.30
2022-08-03T14:20:56.473Z,7.78
2022-08-03T14:22:06.423Z,11.80
2022-08-03T14:23:08.735Z,8.73
2022-08-03T14:24:10.586Z,7.28
2022-08-03T14:25:12.414Z,12.93
2022-08-03T14:26:15.712Z,7.78
2022-08-03T14:27:17.632Z,8.55
2022-08-03T14:28:22.434Z,7.15